Time;durP1;ratioP1;P1;durP2;ratioP2;P2;SDS_P1;SDS_P2;PMS_P1;PMS_P2;Temp;Humidity;BMP_temperature;BMP_pressure;BME280_temperature;BME280_humidity;BME280_pressure;Samples;Min_cycle;Max_cycle;Signal;HPM_P1;HPM_P2
2023/01/13 00:02:03;;;;;;;13.20;6.00;;;;;;;5.83;61.31;101284.77;108181;1283;21991;-70
2023/01/13 00:04:30;;;;;;;19.00;6.10;;;;;;;5.77;61.43;101282.37;108191;1283;21979;-59
2023/01/13 00:06:56;;;;;;;17.40;6.20;;;;;;;5.74;61.47;101280.04;108264;1283;22740;-59
2023/01/13 00:09:21;;;;;;;12.90;5.90;;;;;;;5.74;61.61;101284.05;108197;1283;21996;-70
2023/01/13 00:11:47;;;;;;;13.60;5.70;;;;;;;5.74;61.34;101295.19;108104;1283;22023;-69
2023/01/13 00:14:13;;;;;;;14.50;5.30;;;;;;;5.74;61.41;101302.50;108215;1283;22030;-70
2023/01/13 00:16:38;;;;;;;12.50;5.50;;;;;;;5.72;61.01;101301.09;108303;1283;21990;-69
2023/01/13 00:19:04;;;;;;;16.00;5.80;;;;;;;5.70;60.97;101300.87;108220;1277;21994;-58
2023/01/13 00:21:30;;;;;;;15.10;5.60;;;;;;;5.68;61.05;101298.02;108235;1283;21986;-66
2023/01/13 00:23:55;;;;;;;17.80;6.40;;;;;;;5.65;60.86;101293.44;108228;1283;21974;-58
2023/01/13 00:26:23;;;;;;;11.80;5.60;;;;;;;5.64;60.89;101297.41;108230;1283;21989;-59
2023/01/13 00:28:48;;;;;;;18.70;5.80;;;;;;;5.62;60.77;101302.25;108266;1283;22020;-70
2023/01/13 00:31:18;;;;;;;13.80;5.20;;;;;;;5.61;60.78;101295.77;108311;1283;21982;-59
2023/01/13 00:33:47;;;;;;;18.60;7.80;;;;;;;5.60;60.80;101301.15;108314;1283;22024;-69
2023/01/13 00:36:14;;;;;;;16.40;5.50;;;;;;;5.59;60.68;101306.16;108259;1283;22038;-69
2023/01/13 00:38:41;;;;;;;16.20;5.60;;;;;;;5.59;60.73;101309.48;108272;1283;21990;-59
2023/01/13 00:41:09;;;;;;;11.40;5.20;;;;;;;5.60;60.74;101305.67;108324;1283;21986;-70
2023/01/13 00:43:35;;;;;;;17.00;6.10;;;;;;;5.60;60.71;101297.48;107511;1283;1003217;-59
2023/01/13 00:46:02;;;;;;;16.30;6.90;;;;;;;5.59;60.60;101296.06;108238;1283;21989;-59
2023/01/13 00:48:28;;;;;;;14.80;6.20;;;;;;;5.59;60.43;101294.49;107507;1283;1006956;-69
2023/01/13 00:51:01;;;;;;;16.40;5.70;;;;;;;5.57;60.44;101293.25;108204;1283;21982;-66
2023/01/13 00:53:28;;;;;;;17.00;7.40;;;;;;;5.57;60.37;101285.92;108304;1283;21984;-58
2023/01/13 00:56:04;;;;;;;15.00;6.00;;;;;;;5.52;60.03;101285.13;108240;1283;21980;-59
2023/01/13 04:55:51;;;;;;;21.50;9.10;;;;;;;1.53;98.49;101285.19;108037;1281;558800;-59
2023/01/13 04:58:41;;;;;;;26.20;10.50;;;;;;;3.97;81.32;101277.27;108296;1283;23150;-60
2023/01/13 05:01:07;;;;;;;24.90;11.50;;;;;;;4.43;75.33;101275.11;108208;1284;21977;-66
2023/01/13 05:03:33;;;;;;;23.40;10.50;;;;;;;4.67;73.78;101275.39;108196;1284;21993;-59
2023/01/13 05:05:58;;;;;;;24.00;10.40;;;;;;;4.86;72.66;101278.30;108242;1284;21985;-59
2023/01/13 05:08:26;;;;;;;30.10;11.90;;;;;;;5.01;71.72;101280.07;108108;1282;324575;-68
2023/01/13 05:10:51;;;;;;;25.40;10.40;;;;;;;5.15;70.82;101282.49;108505;1282;21980;-68
2023/01/13 05:16:59;;;;;;;19.00;7.90;;;;;;;5.42;69.12;101280.02;108495;1282;21985;-59
2023/01/13 05:18:47;;;;;;;17.50;7.90;;;;;;;5.52;68.67;101280.94;108449;1281;21973;-59
2023/01/13 05:25:20;;;;;;;17.30;7.40;;;;;;;5.59;68.51;101284.05;108321;1279;21981;-68
2023/01/13 05:26:43;;;;;;;16.00;7.00;;;;;;;5.70;67.34;101284.66;108400;1282;21999;-69
2023/01/13 05:29:09;;;;;;;18.50;9.10;;;;;;;5.74;67.12;101284.21;108370;1282;21990;-69
2023/01/13 05:31:34;;;;;;;15.20;8.20;;;;;;;5.70;67.00;101286.91;108369;1283;21993;-69
2023/01/13 05:34:00;;;;;;;17.30;7.50;;;;;;;5.73;66.76;101292.02;108425;1276;22074;-68
2023/01/13 05:36:26;;;;;;;17.10;7.40;;;;;;;5.79;66.53;101301.39;108418;1282;21988;-68
2023/01/13 05:38:52;;;;;;;15.50;7.50;;;;;;;5.85;66.11;101301.71;108439;1282;21990;-66
2023/01/13 05:44:02;;;;;;;15.90;7.40;;;;;;;5.89;65.55;101301.08;108389;1276;21985;-60
2023/01/13 05:46:28;;;;;;;16.70;7.10;;;;;;;5.91;65.75;101298.02;108391;1282;22039;-68
2023/01/13 05:48:54;;;;;;;13.60;6.90;;;;;;;5.88;65.92;101300.05;108353;1283;21974;-60
2023/01/13 05:51:24;;;;;;;15.20;7.10;;;;;;;5.86;65.79;101304.52;108388;1282;22000;-59
2023/01/13 05:53:53;;;;;;;13.40;7.00;;;;;;;5.88;65.45;101308.91;108397;1282;21979;-60
2023/01/13 05:56:19;;;;;;;17.50;8.30;;;;;;;5.90;65.32;101310.70;108453;1282;22033;-60
2023/01/13 05:58:45;;;;;;;16.10;7.20;;;;;;;5.86;65.59;101310.96;108435;1282;21981;-64
2023/01/13 06:01:11;;;;;;;16.90;7.40;;;;;;;5.84;65.23;101306.38;108478;1282;22020;-67
2023/01/13 06:03:37;;;;;;;18.30;7.20;;;;;;;5.85;65.03;101303.77;108377;1282;21983;-60
2023/01/13 06:06:03;;;;;;;16.50;7.20;;;;;;;5.87;65.06;101308.89;108290;1283;22455;-68
2023/01/13 06:08:32;;;;;;;14.90;7.40;;;;;;;5.90;65.00;101315.23;108297;1283;21982;-60
2023/01/13 06:11:05;;;;;;;16.50;7.50;;;;;;;5.98;64.95;101317.85;108337;1283;21978;-60
2023/01/13 06:13:31;;;;;;;14.10;6.90;;;;;;;6.03;64.72;101314.66;108385;1282;22105;-64
2023/01/13 06:15:57;;;;;;;13.80;7.20;;;;;;;6.05;64.43;101318.55;108281;1283;21989;-67
2023/01/13 06:18:23;;;;;;;15.50;8.20;;;;;;;6.07;64.43;101316.30;108314;1283;21984;-59
2023/01/13 06:20:49;;;;;;;15.90;7.40;;;;;;;6.07;64.18;101318.22;108311;1282;21988;-68
2023/01/13 06:23:15;;;;;;;19.30;7.20;;;;;;;6.12;64.00;101319.90;108450;1282;22446;-68
2023/01/13 06:25:47;;;;;;;16.90;7.30;;;;;;;6.14;63.79;101317.33;108406;1282;21987;-60
2023/01/13 06:28:13;;;;;;;14.40;7.90;;;;;;;6.13;63.89;101313.66;108410;1280;21986;-60
2023/01/13 06:30:47;;;;;;;14.90;7.00;;;;;;;6.13;63.69;101314.70;108422;1276;21995;-68
2023/01/13 06:33:15;;;;;;;14.80;7.30;;;;;;;6.16;63.70;101319.30;108359;1282;23625;-60
2023/01/13 06:35:44;;;;;;;14.30;6.60;;;;;;;6.18;63.57;101320.90;108265;1283;22003;-67
2023/01/13 06:38:11;;;;;;;13.30;6.60;;;;;;;6.26;62.91;101321.23;108358;1276;21983;-59
2023/01/13 06:40:36;;;;;;;12.80;5.80;;;;;;;6.28;63.03;101318.66;108357;1282;21983;-60
2023/01/13 06:43:14;;;;;;;14.00;6.60;;;;;;;6.29;63.12;101315.20;108290;1283;21992;-60
2023/01/13 06:45:46;;;;;;;12.20;5.90;;;;;;;6.21;63.26;101313.98;108207;1283;23029;-60
2023/01/13 06:48:11;;;;;;;14.20;6.80;;;;;;;6.13;63.40;101312.95;108308;1283;22090;-68
2023/01/13 06:50:37;;;;;;;12.80;6.30;;;;;;;6.08;62.94;101320.86;107565;1282;1002501;-68
2023/01/13 06:53:03;;;;;;;15.00;7.20;;;;;;;6.03;62.73;101322.33;108458;1282;22446;-60
2023/01/13 06:55:29;;;;;;;14.80;7.40;;;;;;;6.02;63.12;101321.77;107674;1282;1002324;-68
2023/01/13 06:57:56;;;;;;;14.60;6.80;;;;;;;6.02;63.44;101324.39;108444;1280;22018;-68
2023/01/13 07:00:22;;;;;;;13.20;6.80;;;;;;;6.02;63.29;101323.17;108260;1283;21987;-60
2023/01/13 07:02:48;;;;;;;13.80;7.00;;;;;;;6.01;63.22;101325.94;108308;1280;21999;-68
2023/01/13 07:05:14;;;;;;;12.80;6.20;;;;;;;6.03;63.22;101325.64;108286;1283;21961;-64
2023/01/13 07:07:40;;;;;;;15.40;7.10;;;;;;;6.07;63.32;101322.59;108301;1276;21982;-68
2023/01/13 07:10:11;;;;;;;15.70;6.80;;;;;;;6.10;63.32;101329.27;108449;1282;23667;-67
2023/01/13 07:15:17;;;;;;;19.50;8.90;;;;;;;6.14;63.17;101335.28;108450;1282;21986;-59
2023/01/13 07:15:25;;;;;;;15.50;8.20;;;;;;;6.20;62.90;101336.28;108408;1282;21980;-60
2023/01/13 07:17:51;;;;;;;16.20;7.50;;;;;;;6.21;62.58;101337.16;108351;1282;21992;-58
2023/01/13 07:20:17;;;;;;;16.40;8.10;;;;;;;6.20;62.54;101341.00;108291;1283;21998;-59
2023/01/13 07:22:43;;;;;;;16.60;7.90;;;;;;;6.22;62.73;101344.34;108265;1282;21994;-70
2023/01/13 07:25:09;;;;;;;16.50;8.30;;;;;;;6.27;62.71;101345.30;108402;1281;22030;-61
2023/01/13 07:27:37;;;;;;;16.60;7.70;;;;;;;6.32;62.79;101341.07;108529;1279;21984;-61
2023/01/13 07:30:04;;;;;;;16.90;7.80;;;;;;;6.38;62.66;101342.76;108317;1282;21995;-61
2023/01/13 07:32:32;;;;;;;16.10;7.40;;;;;;;6.42;62.62;101345.78;108386;1282;21989;-61
2023/01/13 07:35:04;;;;;;;16.30;7.40;;;;;;;6.33;63.27;101353.64;108392;1282;21983;-61
2023/01/13 07:37:35;;;;;;;20.20;7.70;;;;;;;6.35;63.60;101352.11;108318;1282;21982;-70
2023/01/13 07:40:03;;;;;;;14.60;7.50;;;;;;;6.38;63.81;101355.66;108348;1279;23072;-60
2023/01/13 07:45:18;;;;;;;15.60;8.00;;;;;;;6.59;63.69;101358.34;108404;1282;22023;-70
2023/01/13 07:47:44;;;;;;;18.30;9.80;;;;;;;6.66;64.12;101359.16;108624;1282;23058;-59
2023/01/13 07:50:10;;;;;;;17.70;8.50;;;;;;;6.73;63.65;101359.13;108276;1282;21993;-68
2023/01/13 07:52:36;;;;;;;18.00;9.40;;;;;;;6.76;63.34;101362.70;108349;1282;21979;-70
2023/01/13 07:55:02;;;;;;;15.40;7.90;;;;;;;6.78;63.49;101368.48;108295;1282;24396;-59
2023/01/13 07:57:28;;;;;;;16.60;8.00;;;;;;;6.79;63.66;101369.90;108286;1282;21978;-69
2023/01/13 07:59:54;;;;;;;16.10;8.50;;;;;;;6.84;63.63;101373.27;108390;1270;22102;-60
2023/01/13 08:02:20;;;;;;;18.10;8.50;;;;;;;6.88;63.58;101370.75;108524;1280;22020;-70
2023/01/13 08:04:47;;;;;;;16.30;7.90;;;;;;;6.91;63.74;101369.94;108344;1282;23767;-69
2023/01/13 08:07:13;;;;;;;18.00;8.10;;;;;;;6.93;63.81;101375.39;108301;1282;21983;-69
2023/01/13 08:09:38;;;;;;;18.40;9.30;;;;;;;7.03;64.02;101378.88;108304;1282;22016;-69
2023/01/13 08:14:50;;;;;;;15.70;8.40;;;;;;;7.14;63.30;101377.68;108359;1279;23074;-59
2023/01/13 08:17:16;;;;;;;17.80;8.80;;;;;;;7.20;63.21;101381.28;108299;1282;22010;-60
2023/01/13 08:19:41;;;;;;;16.40;7.80;;;;;;;7.25;63.07;101379.98;108299;1282;21990;-70
2023/01/13 08:22:07;;;;;;;15.40;7.40;;;;;;;7.26;62.72;101378.24;108271;1280;21983;-69
2023/01/13 08:24:33;;;;;;;17.20;8.50;;;;;;;7.30;63.03;101376.90;108193;1282;22020;-69
2023/01/13 08:26:59;;;;;;;15.30;8.20;;;;;;;7.35;63.14;101371.05;108280;1283;21988;-59
2023/01/13 08:29:24;;;;;;;13.50;7.40;;;;;;;7.40;63.04;101374.46;108259;1283;22004;-60
2023/01/13 08:31:50;;;;;;;14.50;7.70;;;;;;;7.42;62.84;101371.19;108303;1283;22047;-71
2023/01/13 08:34:16;;;;;;;17.10;8.70;;;;;;;7.45;62.75;101367.03;108325;1276;21988;-71
2023/01/13 08:36:41;;;;;;;18.80;9.70;;;;;;;7.42;62.49;101365.23;108324;1282;22741;-59
2023/01/13 08:39:07;;;;;;;14.30;8.10;;;;;;;7.40;62.84;101357.88;108266;1283;21994;-59
2023/01/13 08:44:17;;;;;;;17.00;8.10;;;;;;;7.53;63.44;101354.92;108291;1282;21983;-70
2023/01/13 08:46:43;;;;;;;18.60;7.30;;;;;;;7.59;63.62;101355.20;108355;1282;21996;-61
2023/01/13 08:49:08;;;;;;;18.50;8.00;;;;;;;7.60;63.74;101351.19;108309;1273;21990;-59
2023/01/13 08:51:34;;;;;;;15.90;7.80;;;;;;;7.61;63.57;101349.46;108305;1282;21994;-62
2023/01/13 08:54:01;;;;;;;21.70;9.00;;;;;;;7.61;63.02;101347.89;107631;1280;1002400;-60
2023/01/13 08:56:28;;;;;;;17.00;7.30;;;;;;;7.54;62.27;101342.02;108253;1282;22020;-61
2023/01/13 08:58:58;;;;;;;18.70;9.00;;;;;;;7.43;61.92;101342.73;108397;1270;21981;-60
2023/01/13 09:01:27;;;;;;;17.00;8.20;;;;;;;7.35;62.23;101347.48;108369;1279;23057;-60
2023/01/13 09:03:53;;;;;;;16.20;7.30;;;;;;;7.31;62.29;101348.81;108318;1282;22952;-73
2023/01/13 09:06:19;;;;;;;12.00;6.00;;;;;;;7.31;62.29;101340.79;108324;1282;21986;-61
2023/01/13 09:08:45;;;;;;;14.70;7.30;;;;;;;7.31;62.43;101337.30;108311;1282;22002;-60
2023/01/13 09:14:03;;;;;;;15.70;7.60;;;;;;;7.32;62.88;101334.00;108305;1282;22093;-69
2023/01/13 09:16:29;;;;;;;12.90;6.50;;;;;;;7.34;62.73;101331.74;108333;1276;21974;-69
2023/01/13 09:18:55;;;;;;;15.30;7.70;;;;;;;7.37;62.68;101334.59;108307;1272;22183;-60
2023/01/13 09:21:22;;;;;;;12.00;6.50;;;;;;;7.42;62.90;101335.90;108289;1282;22012;-70
2023/01/13 09:23:47;;;;;;;16.00;7.10;;;;;;;7.45;62.60;101336.65;108299;1282;22073;-70
2023/01/13 09:26:15;;;;;;;11.40;6.40;;;;;;;7.46;62.54;101340.85;108272;1282;21988;-60
2023/01/13 09:28:41;;;;;;;14.70;6.80;;;;;;;7.49;62.45;101344.56;108304;1281;23798;-60
2023/01/13 09:31:07;;;;;;;13.90;6.80;;;;;;;7.51;62.37;101341.98;108195;1282;22171;-59
2023/01/13 09:36:16;;;;;;;13.80;7.20;;;;;;;7.52;62.65;101343.91;108337;1282;21984;-61
2023/01/13 09:38:42;;;;;;;14.50;6.60;;;;;;;7.55;62.46;101339.06;108224;1283;22026;-70
2023/01/13 09:44:17;;;;;;;14.60;7.80;;;;;;;7.64;62.60;101332.92;108236;1283;21990;-70
2023/01/13 09:46:46;;;;;;;13.60;7.00;;;;;;;7.66;62.57;101325.45;108316;1283;22076;-70
2023/01/13 09:49:19;;;;;;;14.30;7.10;;;;;;;7.70;62.74;101322.53;108248;1279;22453;-71
2023/01/13 09:51:50;;;;;;;17.50;8.60;;;;;;;7.75;63.20;101318.58;108322;1282;21987;-71
2023/01/13 09:54:27;;;;;;;18.10;7.00;;;;;;;7.86;63.48;101320.65;108377;1282;22099;-70
2023/01/13 09:56:55;;;;;;;24.30;9.20;;;;;;;7.96;63.70;101316.08;108249;1282;24074;-60
2023/01/13 09:59:21;;;;;;;20.00;8.10;;;;;;;8.04;63.51;101314.25;108301;1282;21987;-71
2023/01/13 10:01:50;;;;;;;20.20;8.80;;;;;;;8.03;63.05;101311.98;108133;1273;22029;-71
2023/01/13 10:04:18;;;;;;;17.30;9.70;;;;;;;8.03;63.24;101308.13;108322;1282;22974;-60
2023/01/13 10:06:47;;;;;;;14.60;8.00;;;;;;;8.04;63.28;101308.66;108285;1282;22031;-59
2023/01/13 10:09:26;;;;;;;22.30;8.90;;;;;;;8.07;63.09;101307.98;108360;1282;22024;-71
2023/01/13 10:14:39;;;;;;;16.00;7.80;;;;;;;8.12;63.10;101294.44;108232;1282;21978;-59
2023/01/13 10:17:20;;;;;;;18.40;7.40;;;;;;;8.14;63.07;101294.47;108269;1280;22448;-60
2023/01/13 10:19:51;;;;;;;16.70;8.30;;;;;;;8.16;63.00;101290.98;108368;1282;21983;-60
2023/01/13 10:22:19;;;;;;;16.00;8.90;;;;;;;8.19;62.96;101281.39;107545;1276;1002853;-60
2023/01/13 10:25:07;;;;;;;18.40;9.40;;;;;;;8.21;62.99;101276.88;108342;1282;21983;-60
2023/01/13 10:27:35;;;;;;;15.30;8.20;;;;;;;8.21;62.88;101275.48;108268;1282;21981;-72
2023/01/13 10:30:34;;;;;;;17.40;8.10;;;;;;;8.21;62.72;101272.17;108346;1282;21979;-72
2023/01/13 13:36:53;;;;;;;36.00;19.40;;;;;;;6.45;80.53;101264.56;108175;1283;21988;-60
2023/01/13 13:48:28;;;;;;;19.50;12.00;;;;;;;7.29;70.38;101268.66;108194;1284;23154;-60
2023/01/13 13:51:02;;;;;;;22.60;11.50;;;;;;;7.39;69.90;101264.43;108441;1281;23832;-60
2023/01/13 13:53:36;;;;;;;659.00;382.20;;;;;;;7.43;69.46;101264.14;108438;1267;21987;-74
2023/01/13 13:56:03;;;;;;;90.80;45.70;;;;;;;7.61;70.42;101265.44;108377;1279;22087;-73
2023/01/13 13:58:30;;;;;;;48.80;24.20;;;;;;;7.72;69.72;101264.73;108401;1279;23612;-60
2023/01/13 14:00:57;;;;;;;691.10;503.20;;;;;;;7.77;68.99;101259.73;108420;1279;21977;-60
2023/01/13 14:03:23;;;;;;;151.50;97.20;;;;;;;7.94;70.19;101255.74;108355;1274;22008;-73
2023/01/13 14:51:35;;;;;;;23.50;12.80;;;;;;;6.79;66.58;101251.97;107313;1293;557259;-70
2023/01/13 14:54:01;;;;;;;22.20;12.20;;;;;;;7.50;64.90;101249.91;107429;1292;22005;-59
2023/01/13 14:56:38;;;;;;;24.80;13.70;;;;;;;7.54;64.29;101252.77;107523;1295;22762;-70
2023/01/13 14:59:40;;;;;;;29.70;13.50;;;;;;;7.54;64.08;101252.60;106732;1293;1002926;-70
2023/01/13 15:02:28;;;;;;;26.50;15.10;;;;;;;7.55;64.20;101257.51;107771;1292;22460;-69
2023/01/13 15:04:55;;;;;;;26.40;13.40;;;;;;;7.55;64.15;101260.65;107460;1290;420658;-69
2023/01/13 15:07:27;;;;;;;33.60;14.70;;;;;;;7.55;64.02;101263.44;107818;1290;22147;-69
2023/01/13 15:09:54;;;;;;;32.80;14.50;;;;;;;7.53;63.72;101264.47;107870;1290;21996;-59
2023/01/13 15:12:31;;;;;;;36.80;17.00;;;;;;;7.52;63.77;101267.25;107847;1290;22076;-59
2023/01/13 15:14:58;;;;;;;34.90;16.50;;;;;;;7.55;63.72;101277.24;107970;1290;22010;-59
2023/01/13 15:17:23;;;;;;;33.90;16.00;;;;;;;7.57;63.58;101279.71;107822;1290;22037;-59
2023/01/13 15:19:49;;;;;;;31.20;17.00;;;;;;;7.58;63.53;101282.88;107886;1286;22006;-70
2023/01/13 15:22:15;;;;;;;34.70;18.20;;;;;;;7.58;63.40;101281.65;107730;1290;22000;-61
2023/01/13 15:24:40;;;;;;;34.00;17.90;;;;;;;7.58;63.47;101273.97;107749;1290;22049;-70
2023/01/13 15:27:16;;;;;;;32.90;15.50;;;;;;;7.64;63.69;101270.02;107751;1289;22015;-70
2023/01/13 15:29:42;;;;;;;32.90;15.30;;;;;;;7.64;63.31;101269.86;107786;1290;22003;-60
2023/01/13 15:32:19;;;;;;;33.50;15.20;;;;;;;7.60;63.07;101270.50;107010;1286;1002249;-60
2023/01/13 15:34:45;;;;;;;34.90;14.20;;;;;;;7.58;62.86;101276.23;107843;1289;22000;-70
2023/01/13 15:37:18;;;;;;;30.40;13.70;;;;;;;7.56;62.72;101277.60;108062;1290;21990;-71
2023/01/13 15:39:45;;;;;;;31.70;16.00;;;;;;;7.56;62.99;101281.96;107966;1289;22021;-60
2023/01/13 15:47:42;;;;;;;46.20;24.50;;;;;;;7.54;63.10;101288.77;107970;1286;22004;-60
2023/01/13 15:50:15;;;;;;;41.20;20.50;;;;;;;7.63;63.17;101288.73;107986;1290;22041;-60
2023/01/13 15:52:42;;;;;;;34.30;17.60;;;;;;;7.70;63.06;101291.42;107909;1290;22006;-60
2023/01/13 15:55:07;;;;;;;39.00;16.70;;;;;;;7.68;62.21;101289.84;107866;1288;21993;-60
2023/01/13 15:57:34;;;;;;;34.40;17.00;;;;;;;7.63;62.40;101289.23;107828;1290;21997;-61
2023/01/13 16:00:03;;;;;;;34.20;15.30;;;;;;;7.63;62.46;101290.45;107716;1290;22013;-60
2023/01/13 16:02:30;;;;;;;30.10;15.30;;;;;;;7.62;62.32;101289.75;107781;1290;22743;-60
2023/01/13 16:04:56;;;;;;;30.70;16.50;;;;;;;7.62;62.29;101295.86;107742;1290;22049;-70
2023/01/13 16:07:22;;;;;;;31.20;15.80;;;;;;;7.61;62.40;101290.78;107804;1290;22014;-70
2023/01/13 16:09:48;;;;;;;33.10;16.60;;;;;;;7.60;62.26;101285.88;107812;1290;23046;-70
2023/01/13 16:12:14;;;;;;;32.70;15.20;;;;;;;7.59;62.30;101286.55;107851;1290;22100;-70
2023/01/13 16:14:41;;;;;;;31.90;15.40;;;;;;;7.57;62.32;101287.93;107799;1290;22004;-70
2023/01/13 16:17:16;;;;;;;42.10;16.50;;;;;;;7.57;62.06;101286.54;107766;1290;22004;-69
2023/01/13 16:19:44;;;;;;;33.10;16.10;;;;;;;7.52;62.19;101288.55;107798;1290;23735;-69
2023/01/13 16:22:10;;;;;;;28.90;12.60;;;;;;;7.50;62.65;101286.27;107833;1290;22063;-69
2023/01/13 16:24:36;;;;;;;25.70;13.70;;;;;;;7.50;62.31;101287.32;107848;1290;22045;-69
2023/01/13 16:27:11;;;;;;;29.50;14.00;;;;;;;7.50;62.32;101284.70;107890;1290;22491;-69
2023/01/13 16:29:37;;;;;;;26.90;14.70;;;;;;;7.50;62.22;101283.46;107797;1285;22009;-69
2023/01/13 16:32:02;;;;;;;28.70;15.00;;;;;;;7.47;61.95;101289.52;107740;1290;21995;-60
2023/01/13 16:34:28;;;;;;;27.20;14.40;;;;;;;7.45;62.24;101286.18;107681;1290;21995;-60
2023/01/13 16:36:54;;;;;;;25.50;12.50;;;;;;;7.45;62.04;101286.19;107695;1290;21995;-68
2023/01/13 16:39:21;;;;;;;29.90;13.10;;;;;;;7.46;61.93;101289.87;107823;1290;22040;-60
2023/01/13 16:41:48;;;;;;;23.90;12.40;;;;;;;7.50;61.73;101284.67;107852;1290;22161;-69
2023/01/13 16:44:13;;;;;;;26.30;12.60;;;;;;;7.52;61.55;101284.36;107708;1290;22008;-60
2023/01/13 16:46:42;;;;;;;23.80;12.40;;;;;;;7.52;61.57;101283.83;107766;1290;22003;-69
2023/01/13 16:49:07;;;;;;;27.30;13.40;;;;;;;7.53;61.58;101279.48;107749;1290;21995;-69
2023/01/13 16:51:34;;;;;;;27.70;14.10;;;;;;;7.55;61.59;101282.65;107792;1292;22165;-61
2023/01/13 16:54:00;;;;;;;28.00;14.40;;;;;;;7.55;61.57;101280.91;107752;1292;22204;-60
2023/01/13 16:56:30;;;;;;;25.90;12.30;;;;;;;7.53;61.71;101281.05;107684;1292;22015;-69
2023/01/13 16:59:01;;;;;;;22.60;11.90;;;;;;;7.52;61.25;101281.91;107767;1292;22005;-69
2023/01/13 17:01:28;;;;;;;21.70;11.60;;;;;;;7.49;61.03;101287.11;107777;1291;22099;-69
2023/01/13 17:03:54;;;;;;;22.50;11.50;;;;;;;7.47;61.20;101286.21;107746;1291;22000;-69
2023/01/13 17:06:26;;;;;;;25.10;12.50;;;;;;;7.48;61.22;101290.41;107726;1292;22060;-60
2023/01/13 17:08:53;;;;;;;19.80;10.30;;;;;;;7.46;61.30;101288.64;107916;1292;22969;-69
2023/01/13 17:11:19;;;;;;;22.70;11.90;;;;;;;7.47;61.24;101286.72;107913;1291;21996;-69
2023/01/13 17:13:45;;;;;;;23.60;13.30;;;;;;;7.47;61.21;101291.45;107932;1287;22004;-69
2023/01/13 17:16:15;;;;;;;25.00;12.40;;;;;;;7.48;61.33;101289.37;107841;1291;22003;-60
2023/01/13 17:18:43;;;;;;;23.30;10.90;;;;;;;7.48;61.15;101291.83;107853;1291;23694;-69
2023/01/13 17:21:09;;;;;;;25.00;11.90;;;;;;;7.49;61.18;101294.98;107954;1291;22050;-60
2023/01/13 17:23:36;;;;;;;432.60;299.50;;;;;;;7.50;61.41;101300.92;107708;1291;22002;-69
2023/01/13 17:26:01;;;;;;;77.90;47.20;;;;;;;7.73;62.93;101301.09;107710;1290;22036;-66
2023/01/13 17:28:27;;;;;;;45.20;26.50;;;;;;;7.99;63.58;101303.19;107673;1291;21992;-60
2023/01/13 17:30:54;;;;;;;32.70;18.20;;;;;;;8.08;62.91;101309.06;107673;1291;22012;-69
2023/01/13 17:33:20;;;;;;;25.90;15.50;;;;;;;8.08;62.19;101304.16;107655;1291;22009;-68
2023/01/13 17:35:46;;;;;;;27.90;13.70;;;;;;;8.03;61.84;101304.98;107658;1291;21999;-60
2023/01/13 17:38:11;;;;;;;27.00;13.20;;;;;;;7.99;61.64;101319.25;107706;1291;21992;-60
2023/01/13 17:40:37;;;;;;;18.50;11.70;;;;;;;7.89;61.38;101320.00;107642;1291;22004;-61
2023/01/13 17:43:03;;;;;;;22.70;12.70;;;;;;;7.75;60.92;101316.30;107673;1291;22081;-68
2023/01/13 17:45:28;;;;;;;20.20;10.80;;;;;;;7.65;60.94;101315.82;107680;1291;22110;-60
2023/01/13 17:47:57;;;;;;;19.60;11.60;;;;;;;7.59;61.19;101319.57;107696;1291;22009;-60
2023/01/13 17:50:26;;;;;;;20.40;11.50;;;;;;;7.54;61.20;101316.34;107714;1289;22466;-58
2023/01/13 17:52:53;;;;;;;21.50;11.40;;;;;;;7.53;61.38;101316.16;107697;1289;22002;-67
2023/01/13 17:55:18;;;;;;;19.20;9.80;;;;;;;7.53;61.42;101317.55;107800;1289;22037;-67
2023/01/13 17:57:44;;;;;;;16.50;9.40;;;;;;;7.53;61.42;101315.63;107747;1287;22002;-59
2023/01/13 18:00:11;;;;;;;18.70;10.60;;;;;;;7.52;61.17;101311.95;107765;1289;22039;-67
2023/01/13 18:02:37;;;;;;;22.10;11.70;;;;;;;7.52;61.15;101306.19;107765;1289;21995;-67
2023/01/13 18:05:04;;;;;;;20.40;12.20;;;;;;;7.56;61.19;101304.33;107744;1289;21998;-58
2023/01/13 18:07:29;;;;;;;21.10;11.90;;;;;;;7.56;60.94;101311.30;107792;1289;22055;-60
2023/01/13 18:09:55;;;;;;;22.20;11.80;;;;;;;7.55;60.74;101310.08;107760;1289;21994;-68
2023/01/13 18:12:21;;;;;;;21.40;12.40;;;;;;;7.55;60.87;101308.15;107742;1289;22004;-68
2023/01/13 18:14:47;;;;;;;20.70;11.60;;;;;;;7.52;60.80;101306.19;107779;1289;22001;-68
2023/01/13 18:17:13;;;;;;;19.40;10.80;;;;;;;7.50;60.82;101302.33;107733;1289;22092;-68
2023/01/13 18:27:55;;;;;;;21.40;11.90;;;;;;;7.51;60.71;101307.05;107762;1289;22013;-59
2023/01/13 18:30:21;;;;;;;21.70;12.00;;;;;;;7.51;60.56;101312.46;107735;1286;22042;-68
2023/01/13 18:32:47;;;;;;;20.40;12.20;;;;;;;7.50;60.74;101312.45;107733;1286;22033;-68
2023/01/13 18:35:12;;;;;;;20.70;12.40;;;;;;;7.48;60.69;101306.67;107752;1289;22111;-57
2023/01/13 18:37:39;;;;;;;20.70;11.30;;;;;;;7.49;60.82;101307.91;107773;1289;22002;-67
2023/01/13 18:40:08;;;;;;;21.10;11.90;;;;;;;7.51;60.86;101309.67;107856;1289;22000;-58
2023/01/13 18:42:50;;;;;;;19.80;10.50;;;;;;;7.53;60.71;101304.98;107751;1289;24792;-67
2023/01/13 18:45:27;;;;;;;17.40;10.40;;;;;;;7.53;60.76;101303.05;107790;1289;22021;-67
2023/01/13 18:47:54;;;;;;;19.90;11.30;;;;;;;7.53;60.71;101303.40;107643;1289;22030;-59
2023/01/13 18:50:22;;;;;;;20.50;11.20;;;;;;;7.53;60.61;101304.98;107912;1289;24434;-67
2023/01/13 18:52:47;;;;;;;20.40;12.40;;;;;;;7.53;60.54;101310.55;107766;1289;22001;-59
2023/01/13 18:55:16;;;;;;;20.90;11.60;;;;;;;7.53;60.62;101315.45;107748;1289;22006;-58
2023/01/13 18:57:43;;;;;;;21.70;11.40;;;;;;;7.54;60.51;101310.41;107020;1289;1003056;-67
2023/01/13 19:00:11;;;;;;;18.80;11.80;;;;;;;7.55;60.55;101309.20;107717;1289;22073;-59
2023/01/13 19:02:36;;;;;;;23.30;11.20;;;;;;;7.54;60.51;101309.36;107684;1289;21991;-67
2023/01/13 19:05:03;;;;;;;19.30;11.50;;;;;;;7.54;60.50;101310.06;107766;1289;22136;-58
2023/01/13 19:07:30;;;;;;;22.30;12.20;;;;;;;7.52;60.34;101308.11;107075;1289;1003075;-67
